createdAt,value
2018-01-14T00:01:52.555Z,75.90
2018-01-14T00:04:20.139Z,76.00
2018-01-14T00:06:47.674Z,76.00
2018-01-14T00:09:15.208Z,76.10
2018-01-14T00:11:42.779Z,76.10
2018-01-14T00:14:10.311Z,76.20
2018-01-14T00:16:37.880Z,76.10
2018-01-14T00:19:05.423Z,76.20
2018-01-14T00:21:32.991Z,76.10
2018-01-14T00:24:00.537Z,76.00
2018-01-14T00:26:28.106Z,76.20
2018-01-14T00:28:55.641Z,76.20
2018-01-14T00:31:23.992Z,76.30
2018-01-14T00:33:51.532Z,76.20
2018-01-14T00:36:19.089Z,76.30
2018-01-14T00:38:46.656Z,76.30
2018-01-14T00:41:14.189Z,76.30
2018-01-14T00:43:41.768Z,76.40
2018-01-14T00:46:09.309Z,76.50
2018-01-14T00:48:36.844Z,76.40
2018-01-14T00:51:05.176Z,76.50
2018-01-14T00:53:32.714Z,76.40
2018-01-14T00:56:00.293Z,76.50
2018-01-14T00:58:27.827Z,76.50
2018-01-14T01:00:55.393Z,76.50
2018-01-14T01:03:22.927Z,76.50
2018-01-14T01:05:50.499Z,76.40
2018-01-14T01:08:18.077Z,76.50
2018-01-14T01:10:45.612Z,76.60
2018-01-14T01:13:13.244Z,76.50
2018-01-14T01:15:40.747Z,76.60
2018-01-14T01:18:08.319Z,76.50
2018-01-14T01:20:35.861Z,76.50
2018-01-14T01:23:03.440Z,76.50
2018-01-14T01:25:30.980Z,76.50
2018-01-14T01:27:58.518Z,76.60
2018-01-14T01:30:26.852Z,76.60
2018-01-14T01:32:54.393Z,76.50
2018-01-14T01:35:21.968Z,76.50
2018-01-14T01:37:49.498Z,76.50
2018-01-14T01:40:17.022Z,76.60
2018-01-14T01:42:45.354Z,76.70
2018-01-14T01:45:12.930Z,76.70
2018-01-14T01:47:40.459Z,76.70
2018-01-14T01:50:07.988Z,76.60
2018-01-14T01:52:36.322Z,76.60
2018-01-14T01:55:03.890Z,76.60
2018-01-14T01:57:31.420Z,76.60
2018-01-14T01:59:58.964Z,76.70
2018-01-14T02:02:26.531Z,76.50
2018-01-14T02:04:54.070Z,76.60
2018-01-14T02:07:21.768Z,76.60
2018-01-14T02:09:49.306Z,76.50
2018-01-14T02:12:16.842Z,76.60
2018-01-14T02:14:45.175Z,76.60
2018-01-14T02:17:12.779Z,76.60
2018-01-14T02:19:41.110Z,76.60
2018-01-14T02:22:08.640Z,76.50
2018-01-14T02:24:36.207Z,76.60
2018-01-14T02:27:03.745Z,76.70
2018-01-14T02:29:31.313Z,76.70
2018-01-14T02:31:58.868Z,76.60
2018-01-14T02:34:26.435Z,76.60
2018-01-14T02:36:54.005Z,76.50
2018-01-14T02:39:21.539Z,76.50
2018-01-14T02:41:49.089Z,76.60
2018-01-14T02:44:17.425Z,76.50
2018-01-14T02:46:44.984Z,76.50
2018-01-14T02:49:12.771Z,76.50
2018-01-14T02:51:40.299Z,76.40
2018-01-14T02:54:07.833Z,76.50
2018-01-14T02:56:35.415Z,76.70
2018-01-14T02:59:02.946Z,76.70
2018-01-14T03:01:30.476Z,76.50
2018-01-14T03:03:58.888Z,76.80
2018-01-14T03:06:26.387Z,76.80
2018-01-14T03:08:53.952Z,77.70
2018-01-14T03:11:21.532Z,76.70
2018-01-14T03:13:49.824Z,77.50
2018-01-14T03:16:18.116Z,77.00
2018-01-14T03:18:45.683Z,76.90
2018-01-14T03:21:13.221Z,76.90
2018-01-14T03:23:41.553Z,77.00
2018-01-14T03:26:09.090Z,76.90
2018-01-14T03:28:36.663Z,77.00
2018-01-14T03:31:04.189Z,76.90
2018-01-14T03:33:31.760Z,77.70
2018-01-14T03:35:59.339Z,77.00
2018-01-14T03:38:26.873Z,77.00
2018-01-14T03:40:54.408Z,76.90
2018-01-14T03:43:22.746Z,77.00
2018-01-14T03:45:50.284Z,77.00
2018-01-14T03:48:17.854Z,77.00
2018-01-14T03:50:45.382Z,77.10
2018-01-14T03:53:12.951Z,77.00
2018-01-14T03:55:40.525Z,77.20
2018-01-14T03:58:08.067Z,77.30
2018-01-14T04:00:35.644Z,77.30
2018-01-14T04:03:03.705Z,77.40
2018-01-14T04:05:31.277Z,77.50
2018-01-14T04:07:58.828Z,77.50
2018-01-14T04:10:26.396Z,77.50
2018-01-14T04:12:53.935Z,77.60
2018-01-14T04:15:21.505Z,77.70
2018-01-14T04:17:49.034Z,77.80
2018-01-14T04:20:17.378Z,78.20
2018-01-14T04:22:44.910Z,78.20
2018-01-14T04:25:12.437Z,78.40
2018-01-14T04:27:40.772Z,78.50
2018-01-14T04:30:08.346Z,78.50
2018-01-14T04:32:35.964Z,78.10
2018-01-14T04:35:03.534Z,77.90
2018-01-14T04:37:31.099Z,78.20
2018-01-14T04:39:58.661Z,78.50
2018-01-14T04:42:26.211Z,78.70
2018-01-14T04:44:53.747Z,78.80
2018-01-14T04:47:21.317Z,78.30
2018-01-14T04:49:48.911Z,78.90
2018-01-14T04:52:16.454Z,78.70
2018-01-14T04:54:43.983Z,78.20
2018-01-14T04:57:11.565Z,78.20
2018-01-14T04:59:39.103Z,78.60
2018-01-14T05:02:06.630Z,78.50
2018-01-14T05:04:34.194Z,78.60
2018-01-14T05:07:02.496Z,79.10
2018-01-14T05:09:30.101Z,79.10
2018-01-14T05:11:57.642Z,79.20
2018-01-14T05:14:25.219Z,79.30
2018-01-14T05:16:52.759Z,79.10
2018-01-14T05:19:20.348Z,78.80
2018-01-14T05:21:47.881Z,79.20
2018-01-14T05:24:15.421Z,79.50
2018-01-14T05:26:43.008Z,79.20
2018-01-14T05:29:10.580Z,79.60
2018-01-14T05:31:38.102Z,79.50
2018-01-14T05:34:05.672Z,79.60
2018-01-14T05:36:33.247Z,79.70
2018-01-14T05:39:00.824Z,79.20
2018-01-14T05:41:28.409Z,79.60
2018-01-14T05:43:56.711Z,79.80
2018-01-14T05:46:24.245Z,79.80
2018-01-14T05:48:52.596Z,79.80
2018-01-14T05:51:20.170Z,79.70
2018-01-14T05:53:47.742Z,79.80
2018-01-14T05:56:16.094Z,80.00
2018-01-14T05:58:43.629Z,80.00
2018-01-14T06:01:11.167Z,80.10
2018-01-14T06:03:38.740Z,79.90
2018-01-14T06:06:06.279Z,79.90
2018-01-14T06:08:33.860Z,80.10
2018-01-14T06:11:01.435Z,80.10
2018-01-14T06:13:29.083Z,80.30
2018-01-14T06:15:56.616Z,80.40
2018-01-14T06:18:24.956Z,80.40
2018-01-14T06:20:53.256Z,80.60
2018-01-14T06:23:21.588Z,80.60
2018-01-14T06:25:49.122Z,80.60
2018-01-14T06:28:16.700Z,80.70
2018-01-14T06:30:44.277Z,80.70
2018-01-14T06:33:11.812Z,80.70
2018-01-14T06:35:39.387Z,80.90
2018-01-14T06:38:06.948Z,81.00
2018-01-14T06:40:34.485Z,81.00
2018-01-14T06:43:02.064Z,81.10
2018-01-14T06:45:29.598Z,81.00
2018-01-14T06:47:57.128Z,81.10
2018-01-14T06:50:25.470Z,81.20
2018-01-14T06:52:53.005Z,81.10
2018-01-14T06:55:20.574Z,81.30
2018-01-14T06:57:48.107Z,81.20
2018-01-14T07:00:15.788Z,81.20
2018-01-14T07:02:43.362Z,81.40
2018-01-14T07:05:10.889Z,81.40
2018-01-14T07:07:38.455Z,81.30
2018-01-14T07:10:06.027Z,81.40
2018-01-14T07:12:35.221Z,81.50
2018-01-14T07:15:08.314Z,81.50
2018-01-14T07:17:35.846Z,81.50
2018-01-14T07:20:03.428Z,81.50
2018-01-14T07:22:30.965Z,81.40
2018-01-14T07:24:59.302Z,81.70
2018-01-14T07:27:26.832Z,81.60
2018-01-14T07:29:54.393Z,81.70
2018-01-14T07:32:21.933Z,81.80
2018-01-14T07:34:49.526Z,81.80
2018-01-14T07:37:17.066Z,81.80
2018-01-14T07:39:44.646Z,81.90
2018-01-14T07:42:12.192Z,81.80
2018-01-14T07:44:39.768Z,81.80
2018-01-14T07:47:07.345Z,82.00
2018-01-14T07:49:35.710Z,82.10
2018-01-14T07:52:03.303Z,82.10
2018-01-14T07:54:31.612Z,82.80
2018-01-14T07:56:59.183Z,82.00
2018-01-14T07:59:26.719Z,82.10
2018-01-14T08:01:54.252Z,82.10
2018-01-14T08:04:21.823Z,82.00
2018-01-14T08:06:50.114Z,82.10
2018-01-14T08:09:18.460Z,82.10
2018-01-14T08:11:46.078Z,82.10
2018-01-14T08:14:13.680Z,82.30
2018-01-14T08:16:41.211Z,82.20
2018-01-14T08:19:08.844Z,82.20
2018-01-14T08:21:36.418Z,82.20
2018-01-14T08:24:04.080Z,82.30
2018-01-14T08:26:31.634Z,82.30
2018-01-14T08:28:59.261Z,82.40
2018-01-14T08:31:26.809Z,82.40
2018-01-14T08:33:54.385Z,82.40
2018-01-14T08:36:22.679Z,82.40
2018-01-14T08:38:50.359Z,82.40
2018-01-14T08:41:17.887Z,82.40
2018-01-14T08:43:46.223Z,82.60
2018-01-14T08:46:13.755Z,82.60
2018-01-14T08:48:41.329Z,82.60
2018-01-14T08:51:08.874Z,82.70
2018-01-14T08:53:36.448Z,82.80
2018-01-14T08:56:03.982Z,82.60
2018-01-14T08:58:31.568Z,82.70
2018-01-14T09:00:59.099Z,82.70
2018-01-14T09:03:26.680Z,82.70
2018-01-14T09:05:54.217Z,82.70
2018-01-14T09:08:21.794Z,82.70
2018-01-14T09:10:49.339Z,82.70
2018-01-14T09:13:16.911Z,82.80
2018-01-14T09:15:44.439Z,82.90
2018-01-14T09:18:12.780Z,82.90
2018-01-14T09:20:40.308Z,82.70
2018-01-14T09:23:07.879Z,82.80
2018-01-14T09:25:35.408Z,82.90
2018-01-14T09:28:03.003Z,82.90
2018-01-14T09:30:42.479Z,82.80
2018-01-14T09:33:10.820Z,83.70
2018-01-14T09:35:38.355Z,82.90
2018-01-14T09:38:05.931Z,83.00
2018-01-14T09:40:33.480Z,83.00
2018-01-14T09:43:01.144Z,83.00
2018-01-14T09:45:28.676Z,83.00
2018-01-14T09:47:57.013Z,83.10
2018-01-14T09:50:24.559Z,83.00
2018-01-14T09:52:52.149Z,83.20
2018-01-14T09:55:19.699Z,83.10
2018-01-14T09:57:47.275Z,83.10
2018-01-14T10:00:15.577Z,83.10
2018-01-14T10:02:43.209Z,83.10
2018-01-14T10:05:10.766Z,83.10
2018-01-14T10:07:38.299Z,83.20
2018-01-14T10:10:05.884Z,83.30
2018-01-14T10:12:33.419Z,83.30
2018-01-14T10:15:00.993Z,83.20
2018-01-14T10:17:28.720Z,83.20
2018-01-14T10:19:56.317Z,84.10
2018-01-14T10:22:23.848Z,83.20
2018-01-14T10:24:51.606Z,83.40
2018-01-14T10:27:19.180Z,83.40
2018-01-14T10:29:46.712Z,83.30
2018-01-14T10:32:14.287Z,83.40
2018-01-14T10:34:41.824Z,83.40
2018-01-14T10:37:09.405Z,83.40
2018-01-14T10:39:36.942Z,83.50
2018-01-14T10:42:04.527Z,83.40
2018-01-14T10:44:32.060Z,83.50
2018-01-14T10:46:59.633Z,83.40
2018-01-14T10:49:27.189Z,83.40
2018-01-14T10:51:54.860Z,83.50
2018-01-14T10:54:22.425Z,83.50
2018-01-14T10:56:50.009Z,83.60
2018-01-14T10:59:17.554Z,83.50
2018-01-14T11:01:45.161Z,83.50
2018-01-14T11:04:13.465Z,83.50
2018-01-14T11:06:41.054Z,83.50
2018-01-14T11:09:12.034Z,83.60
2018-01-14T11:11:36.192Z,83.50
2018-01-14T11:14:03.730Z,83.60
2018-01-14T11:16:31.309Z,83.60
2018-01-14T11:18:58.839Z,83.70
2018-01-14T11:21:26.417Z,83.60
2018-01-14T11:23:53.949Z,83.70
2018-01-14T11:26:21.536Z,83.60
2018-01-14T11:28:52.924Z,83.70
2018-01-14T11:31:21.259Z,83.80
2018-01-14T11:33:48.803Z,83.70
2018-01-14T11:36:16.379Z,83.70
2018-01-14T11:38:43.934Z,83.60
2018-01-14T11:41:11.499Z,83.60
2018-01-14T11:43:39.024Z,83.70
2018-01-14T11:46:06.604Z,83.60
2018-01-14T11:48:34.145Z,83.60
2018-01-14T11:51:01.822Z,83.70
2018-01-14T11:53:29.355Z,83.70
2018-01-14T11:55:57.691Z,83.70
2018-01-14T11:58:25.219Z,83.70
2018-01-14T12:00:52.794Z,83.70
2018-01-14T12:03:20.321Z,83.70
2018-01-14T12:05:47.928Z,83.60
2018-01-14T12:08:15.484Z,83.70
2018-01-14T12:10:43.064Z,83.70
2018-01-14T12:13:10.603Z,83.60
2018-01-14T12:15:38.179Z,83.60
2018-01-14T12:18:05.721Z,83.60
2018-01-14T12:20:33.335Z,83.70
2018-01-14T12:23:00.867Z,83.80
2018-01-14T12:25:28.475Z,83.80
2018-01-14T12:27:56.003Z,84.40
2018-01-14T12:30:24.352Z,83.80
2018-01-14T12:33:03.736Z,83.80
2018-01-14T12:35:31.324Z,83.80
2018-01-14T12:37:58.972Z,83.80
2018-01-14T12:40:26.556Z,83.90
2018-01-14T12:42:54.091Z,83.80
2018-01-14T12:45:21.663Z,83.80
2018-01-14T12:47:49.245Z,83.80
2018-01-14T12:50:16.823Z,83.80
2018-01-14T12:52:44.348Z,83.80
2018-01-14T12:55:11.918Z,83.80
2018-01-14T12:57:39.451Z,83.80
2018-01-14T13:00:07.023Z,83.80
2018-01-14T13:02:34.572Z,83.80
2018-01-14T13:05:02.151Z,83.80
2018-01-14T13:07:29.687Z,83.80
2018-01-14T13:09:57.263Z,83.70
2018-01-14T13:12:24.788Z,83.70
2018-01-14T13:14:52.359Z,84.40
2018-01-14T13:17:19.889Z,83.60
2018-01-14T13:19:48.274Z,83.70
2018-01-14T13:22:16.566Z,83.60
2018-01-14T13:24:44.139Z,83.60
2018-01-14T13:27:11.728Z,83.60
2018-01-14T13:29:39.318Z,83.60
2018-01-14T13:32:07.647Z,83.60
2018-01-14T13:34:35.300Z,83.60
2018-01-14T13:37:02.832Z,83.60
2018-01-14T13:39:31.173Z,83.60
2018-01-14T13:41:58.745Z,83.60
2018-01-14T13:44:26.376Z,83.60
2018-01-14T13:46:53.907Z,83.60
2018-01-14T13:49:21.489Z,83.70
2018-01-14T13:51:49.067Z,83.60
2018-01-14T13:54:16.654Z,83.70
2018-01-14T13:56:44.215Z,83.70
2018-01-14T13:59:12.548Z,83.60
2018-01-14T14:01:40.070Z,83.50
2018-01-14T14:04:07.640Z,83.50
2018-01-14T14:06:35.186Z,83.60
2018-01-14T14:09:03.565Z,83.70
2018-01-14T14:11:31.869Z,83.60
2018-01-14T14:13:59.493Z,83.50
2018-01-14T14:16:27.798Z,83.50
2018-01-14T14:18:55.367Z,83.60
2018-01-14T14:21:22.943Z,83.60
2018-01-14T14:23:50.552Z,83.50
2018-01-14T14:26:18.102Z,83.50
2018-01-14T14:28:46.448Z,84.00
2018-01-14T14:31:13.972Z,83.50
2018-01-14T14:33:41.546Z,83.50
2018-01-14T14:36:09.075Z,83.50
2018-01-14T14:38:37.449Z,83.60
2018-01-14T14:41:05.790Z,83.60
2018-01-14T14:43:33.367Z,83.60
2018-01-14T14:46:00.948Z,83.60
2018-01-14T14:48:29.293Z,83.50
2018-01-14T14:50:56.829Z,83.50
2018-01-14T14:53:24.400Z,83.50
2018-01-14T14:55:51.928Z,83.50
2018-01-14T14:58:19.505Z,83.50
2018-01-14T15:00:47.034Z,83.50
2018-01-14T15:03:14.645Z,83.50
2018-01-14T15:05:42.179Z,83.50
2018-01-14T15:08:09.757Z,83.50
2018-01-14T15:10:37.345Z,83.50
2018-01-14T15:13:04.960Z,83.50
2018-01-14T15:15:32.495Z,84.20
2018-01-14T15:18:00.073Z,83.50
2018-01-14T15:20:27.604Z,83.50
2018-01-14T15:22:56.010Z,83.60
2018-01-14T15:25:23.545Z,83.50
2018-01-14T15:27:51.878Z,83.50
2018-01-14T15:30:19.408Z,83.50
2018-01-14T15:32:46.983Z,83.60
2018-01-14T15:35:14.516Z,83.40
2018-01-14T15:37:42.093Z,83.40
2018-01-14T15:40:09.623Z,83.30
2018-01-14T15:42:38.270Z,83.40
2018-01-14T15:45:05.803Z,83.30
2018-01-14T15:47:33.420Z,83.40
2018-01-14T15:50:01.724Z,83.40
2018-01-14T15:52:29.302Z,83.40
2018-01-14T15:54:56.876Z,83.40
2018-01-14T15:57:24.495Z,83.40
2018-01-14T15:59:52.076Z,83.40
2018-01-14T16:02:19.651Z,83.30
2018-01-14T16:04:47.184Z,83.30
2018-01-14T16:07:14.763Z,83.30
2018-01-14T16:09:42.288Z,83.30
2018-01-14T16:12:09.867Z,83.30
2018-01-14T16:14:37.445Z,83.30
2018-01-14T16:17:05.059Z,83.30
2018-01-14T16:19:33.355Z,83.30
2018-01-14T16:22:00.966Z,83.30
2018-01-14T16:24:28.500Z,83.20
2018-01-14T16:26:56.082Z,83.30
2018-01-14T16:29:23.612Z,83.30
2018-01-14T16:31:51.198Z,83.30
2018-01-14T16:34:18.727Z,83.20
2018-01-14T16:36:46.393Z,83.20
2018-01-14T16:39:13.927Z,83.30
2018-01-14T16:41:41.547Z,83.20
2018-01-14T16:44:09.088Z,83.20
2018-01-14T16:46:36.656Z,83.20
2018-01-14T16:49:04.191Z,83.90
2018-01-14T16:51:31.767Z,83.20
2018-01-14T16:53:59.303Z,83.20
2018-01-14T16:56:26.880Z,83.10
2018-01-14T16:58:54.763Z,83.20
2018-01-14T17:01:22.339Z,83.20
2018-01-14T17:03:49.918Z,83.30
2018-01-14T17:06:18.305Z,83.20
2018-01-14T17:08:46.601Z,83.20
2018-01-14T17:11:14.127Z,83.20
2018-01-14T17:13:42.784Z,83.20
2018-01-14T17:16:10.315Z,83.20
2018-01-14T17:18:37.931Z,83.30
2018-01-14T17:21:06.591Z,83.30
2018-01-14T17:23:34.208Z,83.30
2018-01-14T17:26:02.017Z,83.30
2018-01-14T17:28:29.673Z,83.30
2018-01-14T17:30:57.218Z,83.30
2018-01-14T17:33:24.843Z,83.30
2018-01-14T17:35:53.150Z,83.30
2018-01-14T17:38:20.732Z,83.20
2018-01-14T17:40:48.582Z,83.30
2018-01-14T17:43:16.206Z,83.20
2018-01-14T17:45:43.740Z,83.20
2018-01-14T17:48:12.084Z,83.20
2018-01-14T17:50:39.971Z,83.20
2018-01-14T17:53:07.547Z,83.20
2018-01-14T17:55:36.212Z,83.20
2018-01-14T17:58:04.079Z,83.10
2018-01-14T18:00:31.661Z,83.20
2018-01-14T18:03:00.093Z,83.40
2018-01-14T18:05:27.666Z,83.00
2018-01-14T18:07:55.255Z,83.00
2018-01-14T18:10:23.107Z,83.10
2018-01-14T18:12:50.694Z,83.00
2018-01-14T18:15:19.003Z,83.00
2018-01-14T18:17:46.591Z,83.00
2018-01-14T18:20:14.170Z,83.00
2018-01-14T18:22:42.032Z,82.90
2018-01-14T18:25:09.898Z,83.00
2018-01-14T18:27:37.484Z,82.90
2018-01-14T18:30:06.142Z,82.90
2018-01-14T18:32:34.012Z,82.90
2018-01-14T18:35:01.588Z,82.90
2018-01-14T18:37:29.946Z,82.90
2018-01-14T18:39:57.815Z,82.90
2018-01-14T18:45:18.329Z,82.90
2018-01-14T18:47:45.953Z,83.00
2018-01-14T18:50:13.484Z,83.00
2018-01-14T18:52:41.830Z,83.00
2018-01-14T18:55:09.361Z,83.00
2018-01-14T18:57:36.986Z,82.90
2018-01-14T19:00:05.329Z,82.90
2018-01-14T19:02:32.942Z,82.90
2018-01-14T19:05:00.527Z,82.90
2018-01-14T19:07:28.154Z,83.00
2018-01-14T19:09:55.730Z,83.00
2018-01-14T19:12:23.378Z,83.10
2018-01-14T19:14:50.966Z,83.10
2018-01-14T19:17:18.591Z,83.10
2018-01-14T19:19:46.174Z,83.10
2018-01-14T19:22:13.807Z,83.10
2018-01-14T19:24:42.099Z,83.20
2018-01-14T19:27:09.762Z,83.20
2018-01-14T19:29:37.347Z,83.20
2018-01-14T19:32:04.924Z,83.20
2018-01-14T19:34:32.507Z,83.20
2018-01-14T19:37:00.101Z,83.20
2018-01-14T19:39:27.689Z,83.20
2018-01-14T19:41:55.263Z,84.00
2018-01-14T19:44:22.839Z,83.20
2018-01-14T19:46:50.520Z,83.30
2018-01-14T19:49:18.086Z,83.30
2018-01-14T19:51:46.471Z,83.30
2018-01-14T19:54:14.817Z,83.30
2018-01-14T19:56:42.455Z,83.20
2018-01-14T19:59:10.053Z,83.20
2018-01-14T20:01:37.683Z,83.30
2018-01-14T20:04:05.279Z,83.80
2018-01-14T20:06:33.669Z,83.30
2018-01-14T20:09:02.032Z,83.30
2018-01-14T20:11:30.446Z,83.50
2018-01-14T20:13:57.982Z,83.30
2018-01-14T20:16:26.375Z,83.30
2018-01-14T20:18:53.969Z,83.30
2018-01-14T20:21:21.605Z,83.30
2018-01-14T20:23:49.144Z,83.30
2018-01-14T20:26:17.478Z,83.30
2018-01-14T20:28:45.025Z,83.30
2018-01-14T20:31:12.655Z,83.30
2018-01-14T20:33:40.191Z,83.30
2018-01-14T20:36:08.598Z,83.40
2018-01-14T20:38:36.181Z,83.30
2018-01-14T20:41:03.811Z,83.30
2018-01-14T20:43:32.150Z,83.40
2018-01-14T20:45:59.782Z,83.40
2018-01-14T20:48:27.402Z,83.30
2018-01-14T20:50:55.755Z,83.40
2018-01-14T20:53:23.389Z,83.40
2018-01-14T20:55:50.979Z,83.40
2018-01-14T20:58:18.710Z,83.40
2018-01-14T21:00:46.294Z,83.40
2018-01-14T21:03:13.871Z,83.40
2018-01-14T21:05:41.464Z,83.40
2018-01-14T21:08:09.095Z,83.40
2018-01-14T21:10:36.627Z,83.40
2018-01-14T21:13:04.258Z,83.40
2018-01-14T21:15:31.848Z,83.40
2018-01-14T21:17:59.450Z,83.40
2018-01-14T21:20:27.103Z,83.40
2018-01-14T21:22:55.405Z,83.40
2018-01-14T21:25:23.785Z,83.40
2018-01-14T21:27:51.395Z,84.20
2018-01-14T21:30:19.021Z,83.40
2018-01-14T21:32:46.606Z,83.40
2018-01-14T21:35:14.238Z,83.50
2018-01-14T21:37:41.822Z,83.40
2018-01-14T21:40:09.419Z,83.40
2018-01-14T21:42:36.999Z,84.20
2018-01-14T21:45:05.389Z,83.50
2018-01-14T21:47:33.075Z,83.50
2018-01-14T21:50:00.694Z,83.50
2018-01-14T21:52:29.033Z,83.50
2018-01-14T21:54:56.654Z,83.40
2018-01-14T21:57:24.241Z,83.50
2018-01-14T21:59:51.867Z,83.50
2018-01-14T22:02:19.457Z,83.60
2018-01-14T22:04:47.112Z,83.60
2018-01-14T22:07:14.700Z,83.50
2018-01-14T22:09:43.262Z,83.60
2018-01-14T22:12:10.803Z,83.50
2018-01-14T22:14:38.385Z,83.40
2018-01-14T22:17:05.972Z,83.50
2018-01-14T22:19:33.608Z,83.50
2018-01-14T22:22:01.150Z,83.50
2018-01-14T22:24:28.774Z,83.50
2018-01-14T22:26:57.137Z,83.60
2018-01-14T22:29:24.728Z,83.50
2018-01-14T22:31:53.031Z,83.50
2018-01-14T22:34:20.663Z,83.60
2018-01-14T22:36:49.002Z,83.50
2018-01-14T22:39:16.575Z,83.50
2018-01-14T22:41:44.111Z,83.50
2018-01-14T22:44:11.683Z,83.50
2018-01-14T22:46:39.261Z,83.50
2018-01-14T22:49:06.839Z,83.50
2018-01-14T22:51:35.139Z,83.50
2018-01-14T22:54:02.758Z,83.50
2018-01-14T22:56:30.329Z,83.60
2018-01-14T22:58:58.717Z,83.60
2018-01-14T23:01:27.133Z,83.60
2018-01-14T23:03:54.712Z,83.60
2018-01-14T23:06:22.251Z,83.60
2018-01-14T23:08:49.867Z,83.60
2018-01-14T23:11:18.157Z,83.60
2018-01-14T23:13:46.568Z,83.60
2018-01-14T23:16:14.108Z,83.50
2018-01-14T23:18:41.725Z,83.60
2018-01-14T23:21:09.303Z,83.60
2018-01-14T23:23:37.652Z,83.60
2018-01-14T23:26:05.187Z,83.60
2018-01-14T23:28:32.765Z,83.60
2018-01-14T23:31:00.298Z,83.50
2018-01-14T23:33:27.877Z,83.50
2018-01-14T23:35:55.413Z,83.40
2018-01-14T23:38:22.996Z,83.40
2018-01-14T23:40:50.532Z,83.50
2018-01-14T23:43:18.150Z,83.40
2018-01-14T23:45:45.684Z,83.40
2018-01-14T23:48:13.258Z,82.90
2018-01-14T23:50:40.792Z,83.30
2018-01-14T23:53:08.371Z,83.30
2018-01-14T23:55:35.902Z,83.20
2018-01-14T23:58:03.481Z,83.20
